Etusivu
METAR-TAF:

METAR-TAF

Lentoasemat :

Shimojishima, Japani

Leveyspiiri: 24-50N, Pituuspiiri: 125-09E, korkeus merenpinnasta: 16 m

Tämänhetkinen sää

Tämä raportti tehtiin 12 minuuttia sitten, kello 23.00 UTC
Tuuli 10 kn kaakosta
Lämpötila 26°C
Kosteus 94%
Ilmanpaine 1011 hPa
Näkyvyys 10 km tai enemmän
Muutamia pilviä 300 ft:n korkeudessa
Hajanaisia pilviä 1800 ft:n korkeudessa
Hajonneita pilviä 2100 ft:n korkeudessa

METAR: RORS 252300Z AUTO 13010KT 9999 FEW003 SCT018 BKN021 //////TCU 26/25 Q1011

Aika: 08:12 (23:12 UTC)


TAF: puuttuu

Säähavainnot ja -ennusteet yli 4000 lentoasemalta (METAR- ja TAF-raportit).

Käytössä olevat sääasemat on merkitty karttaan keltaisilla ja punaisilla pisteillä.

Aseta hiiri pisteen päälle nähdäksesi sääaseman nimen.

Klikkaa sitten nähdäksesi säähavainnot ja -ennusteet.

Kartan vaihtaminen: klikkaa mustalla rastilla varustettuja vihreitä pisteitä, niin voit zoomata sisään; viivalla varustettua vihreää pistettä, niin voit zoomata ulos tai vihreitä nuolia, niin pääset viereisille kartoille.


METAR-TAF: